Time;durP1;ratioP1;P1;durP2;ratioP2;P2;SDS_P1;SDS_P2;PMS_P1;PMS_P2;Temp;Humidity;BMP_temperature;BMP_pressure;BME280_temperature;BME280_humidity;BME280_pressure;Samples;Min_cycle;Max_cycle;Signal;HPM_P1;HPM_P2
2022/02/02 00:00:20;;;;;;;7.85;2.08;;;;;;;;;;4512499;28;20025;-72
2022/02/02 00:02:38;;;;;;;8.68;2.35;;;;;;;;;;4510850;28;21017;-72
2022/02/02 00:04:53;;;;;;;8.50;2.80;;;;;;;;;;4510613;28;20109;-72
2022/02/02 00:07:11;;;;;;;6.88;2.25;;;;;;;;;;4510914;28;20644;-72
2022/02/02 00:09:22;;;;;;;6.70;2.22;;;;;;;;;;4509637;28;20038;-72
2022/02/02 00:16:07;;;;;;;6.27;2.40;;;;;;;;;;4519136;28;20474;-71
2022/02/02 00:20:55;;;;;;;10.52;2.80;;;;;;;;;;4510029;28;20034;-73
2022/02/02 00:23:14;;;;;;;7.40;2.20;;;;;;;;;;4511952;28;20030;-71
2022/02/02 00:25:32;;;;;;;6.90;2.00;;;;;;;;;;4512638;28;20037;-71
2022/02/02 00:27:45;;;;;;;10.80;2.78;;;;;;;;;;4503779;28;20756;-70
2022/02/02 00:30:00;;;;;;;10.32;2.55;;;;;;;;;;4501247;28;20022;-70
2022/02/02 00:34:40;;;;;;;6.95;2.38;;;;;;;;;;4510544;28;20105;-71
2022/02/02 00:36:57;;;;;;;8.23;2.83;;;;;;;;;;4510371;28;20029;-70
2022/02/02 00:39:08;;;;;;;8.90;2.80;;;;;;;;;;4509276;28;20037;-71
2022/02/02 00:41:18;;;;;;;8.10;2.43;;;;;;;;;;4509749;28;20034;-71
2022/02/02 00:43:29;;;;;;;8.30;2.60;;;;;;;;;;4510119;28;20036;-71
2022/02/02 00:45:44;;;;;;;7.23;2.20;;;;;;;;;;4507753;28;20038;-71
2022/02/02 00:47:55;;;;;;;10.10;3.10;;;;;;;;;;4518622;28;20041;-70
2022/02/02 00:50:06;;;;;;;9.40;2.60;;;;;;;;;;4510857;28;20034;-71
2022/02/02 00:52:17;;;;;;;9.02;2.80;;;;;;;;;;4509087;28;20022;-71
2022/02/02 00:54:29;;;;;;;9.48;2.72;;;;;;;;;;4509370;28;20026;-71
2022/02/02 00:56:39;;;;;;;9.32;2.40;;;;;;;;;;4508274;28;20073;-71
2022/02/02 00:58:49;;;;;;;7.90;2.07;;;;;;;;;;4509621;28;43639;-71
2022/02/02 01:01:00;;;;;;;7.90;2.20;;;;;;;;;;4509543;28;20029;-71
2022/02/02 01:03:10;;;;;;;7.87;2.43;;;;;;;;;;4509425;28;20065;-71
2022/02/02 01:05:21;;;;;;;7.20;2.23;;;;;;;;;;4508038;28;20025;-71
2022/02/02 01:10:04;;;;;;;6.43;1.88;;;;;;;;;;4511057;28;20030;-71
2022/02/02 01:28:47;;;;;;;7.57;2.00;;;;;;;;;;4509063;28;20049;-72
2022/02/02 01:31:00;;;;;;;6.17;2.20;;;;;;;;;;4512038;28;20026;-72
2022/02/02 01:33:10;;;;;;;6.68;2.25;;;;;;;;;;4509658;28;20040;-71
2022/02/02 01:35:21;;;;;;;7.43;1.90;;;;;;;;;;4508103;28;20028;-71
2022/02/02 01:37:31;;;;;;;6.33;2.00;;;;;;;;;;4508826;28;20022;-71
2022/02/02 01:39:42;;;;;;;7.20;1.80;;;;;;;;;;4515862;28;20092;-71
2022/02/02 01:41:53;;;;;;;4.80;1.60;;;;;;;;;;4509311;28;20056;-71
2022/02/02 01:44:13;;;;;;;5.80;2.10;;;;;;;;;;4510338;28;20032;-71
2022/02/02 01:46:27;;;;;;;6.80;1.85;;;;;;;;;;4508074;28;20045;-71
2022/02/02 01:53:46;;;;;;;4.80;1.60;;;;;;;;;;4509201;28;20069;-71
2022/02/02 01:55:57;;;;;;;6.40;2.05;;;;;;;;;;4509019;28;20022;-71
2022/02/02 02:00:39;;;;;;;7.00;2.00;;;;;;;;;;4510897;28;20081;-71
2022/02/02 02:02:49;;;;;;;6.53;1.97;;;;;;;;;;4497064;28;20281;-71
2022/02/02 02:04:59;;;;;;;7.00;2.10;;;;;;;;;;4510033;28;20030;-71
2022/02/02 02:07:10;;;;;;;6.27;1.90;;;;;;;;;;4517326;28;20030;-71
2022/02/02 02:09:25;;;;;;;5.47;1.90;;;;;;;;;;4509258;28;20033;-71
2022/02/02 02:11:41;;;;;;;8.38;2.38;;;;;;;;;;4508929;28;20040;-72
2022/02/02 02:14:34;;;;;;;7.40;2.45;;;;;;;;;;4506682;28;20145;-71
2022/02/02 02:16:28;;;;;;;7.38;2.00;;;;;;;;;;4509486;28;20077;-71
2022/02/02 02:18:38;;;;;;;5.60;2.10;;;;;;;;;;4508745;28;20050;-71
2022/02/02 02:20:50;;;;;;;6.10;1.70;;;;;;;;;;4508681;28;30633;-72
2022/02/02 02:23:00;;;;;;;3.13;1.25;;;;;;;;;;4510000;28;20191;-72
2022/02/02 02:25:21;;;;;;;5.90;1.80;;;;;;;;;;4522843;28;20082;-72
2022/02/02 02:27:31;;;;;;;4.13;1.35;;;;;;;;;;4510024;28;20069;-72
2022/02/02 02:37:32;;;;;;;5.63;1.70;;;;;;;;;;4508078;28;20068;-72
2022/02/02 02:56:35;;;;;;;2.22;0.90;;;;;;;;;;4508328;28;20733;-71
2022/02/02 02:58:58;;;;;;;3.50;1.10;;;;;;;;;;4516431;28;20018;-72
2022/02/02 03:01:30;;;;;;;3.42;1.13;;;;;;;;;;4505975;28;20033;-72
2022/02/02 03:51:06;;;;;;;4.93;1.80;;;;;;;;;;4511586;28;20029;-71
2022/02/02 03:55:47;;;;;;;6.55;2.03;;;;;;;;;;4510205;28;20034;-71
2022/02/02 04:00:33;;;;;;;6.88;2.03;;;;;;;;;;4512010;28;20038;-71
2022/02/02 04:02:54;;;;;;;6.10;1.85;;;;;;;;;;4510223;28;20045;-72
2022/02/02 04:05:23;;;;;;;6.30;1.97;;;;;;;;;;4510638;28;20040;-72
2022/02/02 04:07:46;;;;;;;7.85;1.88;;;;;;;;;;4510761;28;20587;-71
2022/02/02 04:10:02;;;;;;;6.05;1.73;;;;;;;;;;4510959;28;20042;-71
2022/02/02 04:54:20;;;;;;;2.93;0.97;;;;;;;;;;4510041;28;20032;-72
2022/02/02 05:07:57;;;;;;;4.03;1.50;;;;;;;;;;4509564;28;20050;-73
2022/02/02 05:17:59;;;;;;;6.03;1.77;;;;;;;;;;4508986;28;20034;-72
2022/02/02 05:52:26;;;;;;;7.15;1.95;;;;;;;;;;4508207;28;20037;-72
2022/02/02 05:54:37;;;;;;;6.55;1.80;;;;;;;;;;4510184;28;20535;-73
2022/02/02 05:56:52;;;;;;;4.68;1.70;;;;;;;;;;4508967;28;20052;-72
2022/02/02 05:59:03;;;;;;;3.95;1.67;;;;;;;;;;4514681;28;20065;-72
2022/02/02 06:01:14;;;;;;;7.77;1.80;;;;;;;;;;4506961;28;35107;-72
2022/02/02 06:03:30;;;;;;;3.53;1.50;;;;;;;;;;4510047;28;20025;-72
2022/02/02 06:05:42;;;;;;;6.10;1.92;;;;;;;;;;4507549;28;20095;-72
2022/02/02 06:07:53;;;;;;;;;;;;;;;;;;4508207;28;20045;-72
2022/02/02 06:10:06;;;;;;;7.53;1.92;;;;;;;;;;4508238;28;19905;-72
2022/02/02 06:12:19;;;;;;;5.57;1.92;;;;;;;;;;4510891;28;20036;-72
2022/02/02 06:14:30;;;;;;;5.85;2.25;;;;;;;;;;4509470;28;20057;-73
2022/02/02 06:16:41;;;;;;;6.82;2.30;;;;;;;;;;4508829;28;20033;-73
2022/02/02 06:19:00;;;;;;;6.30;1.97;;;;;;;;;;4511523;28;20036;-73
2022/02/02 06:21:12;;;;;;;5.57;1.92;;;;;;;;;;4507552;28;20018;-73
2022/02/02 06:23:30;;;;;;;6.95;1.98;;;;;;;;;;4510520;28;21452;-73
2022/02/02 06:25:46;;;;;;;6.05;1.70;;;;;;;;;;4507039;28;20037;-73
2022/02/02 06:28:21;;;;;;;6.85;1.75;;;;;;;;;;4511423;28;20042;-72
2022/02/02 06:30:33;;;;;;;7.60;2.08;;;;;;;;;;4501741;28;20114;-72
2022/02/02 06:32:52;;;;;;;5.55;1.75;;;;;;;;;;4508514;28;20034;-72
2022/02/02 06:35:05;;;;;;;6.18;1.58;;;;;;;;;;4508670;28;20026;-72
2022/02/02 06:37:16;;;;;;;6.65;1.70;;;;;;;;;;4508616;28;21224;-72
2022/02/02 06:39:26;;;;;;;5.90;1.97;;;;;;;;;;4511385;28;20053;-72
2022/02/02 06:41:37;;;;;;;5.70;2.00;;;;;;;;;;4507393;28;20109;-72
2022/02/02 06:43:48;;;;;;;5.83;1.80;;;;;;;;;;4506559;28;20033;-72
2022/02/02 06:46:01;;;;;;;5.27;1.33;;;;;;;;;;4508805;28;21363;-72
2022/02/02 06:48:11;;;;;;;4.57;1.60;;;;;;;;;;4508188;28;20052;-72
2022/02/02 06:50:29;;;;;;;7.40;1.97;;;;;;;;;;4510398;28;20899;-72
2022/02/02 06:52:58;;;;;;;6.90;1.80;;;;;;;;;;4508710;28;20067;-72
2022/02/02 06:55:22;;;;;;;5.32;1.60;;;;;;;;;;4507817;28;20032;-72
2022/02/02 06:58:18;;;;;;;6.20;1.90;;;;;;;;;;4508067;28;20040;-72
2022/02/02 07:02:55;;;;;;;6.13;1.73;;;;;;;;;;4507580;28;20033;-72
2022/02/02 07:07:58;;;;;;;4.07;1.42;;;;;;;;;;4506135;28;20018;-71
2022/02/02 07:10:33;;;;;;;4.80;1.67;;;;;;;;;;4522943;28;20041;-71
2022/02/02 07:31:50;;;;;;;5.28;1.40;;;;;;;;;;4506033;28;20076;-71
2022/02/02 07:34:22;;;;;;;4.85;1.50;;;;;;;;;;4507730;28;20033;-71
2022/02/02 07:36:39;;;;;;;5.20;1.70;;;;;;;;;;4490471;28;20038;-71
2022/02/02 07:39:03;;;;;;;4.85;1.35;;;;;;;;;;4501056;28;20030;-71
2022/02/02 07:41:30;;;;;;;4.18;1.30;;;;;;;;;;4505936;28;20029;-71
2022/02/02 07:43:44;;;;;;;4.32;1.50;;;;;;;;;;4498980;28;20248;-71
2022/02/02 07:45:59;;;;;;;6.38;1.75;;;;;;;;;;4507486;28;20031;-71
2022/02/02 07:48:12;;;;;;;4.65;1.30;;;;;;;;;;4490148;28;20049;-71
2022/02/02 07:50:24;;;;;;;6.22;1.83;;;;;;;;;;4498725;28;20587;-71
2022/02/02 07:52:35;;;;;;;4.97;1.60;;;;;;;;;;4505564;28;20980;-71
2022/02/02 07:54:48;;;;;;;3.15;1.25;;;;;;;;;;4507524;28;20038;-71
2022/02/02 07:56:59;;;;;;;7.70;1.75;;;;;;;;;;4506240;28;21340;-71
2022/02/02 08:01:27;;;;;;;6.55;1.60;;;;;;;;;;4490530;28;20112;-71
2022/02/02 08:03:41;;;;;;;4.53;1.30;;;;;;;;;;4508356;28;21177;-71
2022/02/02 08:05:53;;;;;;;5.22;1.67;;;;;;;;;;4510552;28;20037;-71
2022/02/02 08:10:21;;;;;;;3.83;1.45;;;;;;;;;;4511120;28;21189;-71
2022/02/02 08:12:41;;;;;;;5.07;1.70;;;;;;;;;;4508903;28;20040;-70
2022/02/02 08:14:57;;;;;;;5.88;1.48;;;;;;;;;;4509256;28;20568;-71
2022/02/02 08:17:07;;;;;;;4.97;1.38;;;;;;;;;;4518334;28;20848;-71
2022/02/02 08:19:20;;;;;;;5.47;1.40;;;;;;;;;;4510623;28;34265;-70
2022/02/02 08:21:30;;;;;;;4.45;1.30;;;;;;;;;;4509094;28;20033;-71
2022/02/02 08:23:41;;;;;;;4.53;1.57;;;;;;;;;;4517496;28;20017;-71
2022/02/02 08:25:51;;;;;;;5.13;1.50;;;;;;;;;;4510565;28;20660;-71
2022/02/02 08:28:04;;;;;;;4.60;1.60;;;;;;;;;;4510696;28;20044;-71
2022/02/02 08:30:15;;;;;;;6.20;1.60;;;;;;;;;;4509803;28;20023;-72
2022/02/02 08:32:30;;;;;;;6.72;1.48;;;;;;;;;;4509996;28;20201;-71
2022/02/02 08:34:46;;;;;;;5.65;1.83;;;;;;;;;;4505846;28;21971;-71
2022/02/02 08:36:58;;;;;;;4.60;1.55;;;;;;;;;;4502213;28;20022;-71
2022/02/02 08:41:32;;;;;;;4.80;1.50;;;;;;;;;;4509899;28;20026;-71
2022/02/02 08:43:56;;;;;;;6.40;1.83;;;;;;;;;;4509717;28;20038;-70
2022/02/02 08:46:17;;;;;;;5.80;1.70;;;;;;;;;;4509128;28;20018;-71
2022/02/02 08:48:28;;;;;;;4.25;1.30;;;;;;;;;;4508359;28;20125;-71
2022/02/02 08:52:55;;;;;;;4.75;1.52;;;;;;;;;;4509218;28;20607;-71
2022/02/02 08:55:07;;;;;;;6.10;1.85;;;;;;;;;;4510439;28;20129;-71
2022/02/02 09:01:44;;;;;;;5.22;1.52;;;;;;;;;;4508791;28;20079;-70
2022/02/02 09:06:24;;;;;;;4.60;1.42;;;;;;;;;;4509376;28;20789;-70
2022/02/02 09:08:34;;;;;;;6.00;1.63;;;;;;;;;;4514059;28;20068;-70
2022/02/02 09:25:27;;;;;;;5.18;1.48;;;;;;;;;;4511290;28;20667;-70
2022/02/02 09:32:56;;;;;;;6.22;1.50;;;;;;;;;;4508844;28;20057;-70
2022/02/02 09:35:08;;;;;;;4.93;1.42;;;;;;;;;;4509411;28;20056;-69
2022/02/02 09:37:19;;;;;;;3.08;1.05;;;;;;;;;;4511833;28;20026;-69
2022/02/02 09:39:37;;;;;;;4.22;1.50;;;;;;;;;;4510536;28;20454;-70
2022/02/02 09:42:01;;;;;;;5.35;1.38;;;;;;;;;;4506003;28;20540;-69
2022/02/02 09:44:16;;;;;;;4.70;1.50;;;;;;;;;;4506725;28;20033;-70
2022/02/02 09:46:33;;;;;;;4.68;1.48;;;;;;;;;;4507579;28;20060;-70
2022/02/02 09:48:51;;;;;;;4.53;1.50;;;;;;;;;;4509044;28;20970;-69
2022/02/02 09:51:07;;;;;;;4.38;1.50;;;;;;;;;;4495953;28;20068;-69
2022/02/02 09:53:31;;;;;;;6.38;1.48;;;;;;;;;;4509076;28;20037;-69
2022/02/02 10:02:59;;;;;;;4.57;1.50;;;;;;;;;;4508110;28;20076;-70
2022/02/02 10:05:12;;;;;;;4.93;1.48;;;;;;;;;;4504633;28;20136;-70
2022/02/02 10:13:16;;;;;;;7.22;1.83;;;;;;;;;;4506332;28;20509;-70
2022/02/02 10:15:15;;;;;;;4.25;1.38;;;;;;;;;;4508537;28;20529;-71
2022/02/02 10:17:31;;;;;;;5.65;1.58;;;;;;;;;;4505521;28;20033;-71
2022/02/02 10:19:41;;;;;;;5.50;1.85;;;;;;;;;;4506312;28;20034;-71
2022/02/02 10:21:52;;;;;;;4.13;1.50;;;;;;;;;;4491642;28;43147;-71
2022/02/02 10:24:03;;;;;;;6.03;1.57;;;;;;;;;;4508224;28;20040;-71
2022/02/02 10:26:19;;;;;;;5.57;1.50;;;;;;;;;;4494057;28;20055;-69
2022/02/02 10:28:30;;;;;;;4.57;1.58;;;;;;;;;;4506799;28;20038;-70
2022/02/02 10:30:47;;;;;;;4.28;1.30;;;;;;;;;;4507173;28;20109;-69
2022/02/02 10:32:58;;;;;;;6.50;1.40;;;;;;;;;;4507062;28;20613;-69
2022/02/02 10:35:10;;;;;;;5.75;1.73;;;;;;;;;;4506739;28;20018;-70
2022/02/02 10:37:29;;;;;;;6.10;1.70;;;;;;;;;;4506974;28;20072;-70
2022/02/02 10:39:47;;;;;;;5.10;1.60;;;;;;;;;;4515830;28;20064;-71
2022/02/02 10:42:00;;;;;;;3.72;1.40;;;;;;;;;;4505983;28;20556;-71
2022/02/02 10:44:25;;;;;;;6.28;1.80;;;;;;;;;;4506589;28;20030;-71
2022/02/02 10:46:59;;;;;;;4.65;1.30;;;;;;;;;;4512808;28;20034;-71
2022/02/02 10:51:55;;;;;;;5.82;1.88;;;;;;;;;;4508414;28;20030;-71
2022/02/02 11:08:31;;;;;;;4.72;1.70;;;;;;;;;;4507598;28;20581;-70
2022/02/02 11:10:41;;;;;;;6.13;1.40;;;;;;;;;;4508415;28;38243;-70
2022/02/02 11:12:54;;;;;;;5.33;1.57;;;;;;;;;;4505326;28;20033;-70
2022/02/02 11:15:11;;;;;;;5.47;1.70;;;;;;;;;;4514617;28;20124;-69
2022/02/02 11:17:48;;;;;;;7.20;1.70;;;;;;;;;;4507486;28;20018;-69
2022/02/02 11:20:03;;;;;;;4.32;1.40;;;;;;;;;;4514220;28;20030;-64
2022/02/02 11:22:31;;;;;;;4.72;1.67;;;;;;;;;;4503427;28;20490;-71
2022/02/02 11:24:41;;;;;;;6.05;1.63;;;;;;;;;;4490291;28;21385;-70
2022/02/02 11:26:52;;;;;;;3.80;1.43;;;;;;;;;;4504674;28;32278;-72
2022/02/02 11:29:02;;;;;;;5.50;1.40;;;;;;;;;;4506141;28;20053;-73
2022/02/02 11:31:18;;;;;;;6.67;1.60;;;;;;;;;;4505668;28;20057;-70
2022/02/02 11:33:28;;;;;;;6.88;1.67;;;;;;;;;;4489523;28;20039;-70
2022/02/02 11:37:59;;;;;;;5.18;1.80;;;;;;;;;;4515989;28;20030;-71
2022/02/02 11:40:10;;;;;;;3.72;1.17;;;;;;;;;;4509528;28;20053;-70
2022/02/02 11:42:50;;;;;;;4.33;1.40;;;;;;;;;;4509053;28;20025;-70
2022/02/02 11:45:15;;;;;;;6.38;1.70;;;;;;;;;;4525744;28;20387;-71
2022/02/02 11:47:40;;;;;;;6.05;1.67;;;;;;;;;;4507366;28;20774;-71
2022/02/02 11:50:02;;;;;;;5.75;1.60;;;;;;;;;;4511347;28;20045;-70
2022/02/02 11:52:34;;;;;;;6.65;1.65;;;;;;;;;;4509923;28;20018;-70
2022/02/02 11:54:46;;;;;;;4.15;1.38;;;;;;;;;;4509916;28;20026;-71
2022/02/02 11:57:04;;;;;;;6.40;1.70;;;;;;;;;;4512651;28;20022;-71
2022/02/02 12:00:03;;;;;;;5.80;1.92;;;;;;;;;;4509415;28;20029;-70
2022/02/02 12:05:04;;;;;;;4.20;1.40;;;;;;;;;;4509289;28;21016;-72
2022/02/02 12:07:17;;;;;;;4.45;1.40;;;;;;;;;;4501942;28;20040;-72
2022/02/02 12:09:42;;;;;;;4.63;1.42;;;;;;;;;;4508496;28;20052;-71
2022/02/02 12:47:26;;;;;;;3.83;1.30;;;;;;;;;;4507505;28;20042;-72
2022/02/02 12:50:02;;;;;;;3.22;1.10;;;;;;;;;;4522619;28;20103;-71
2022/02/02 12:57:22;;;;;;;3.67;1.10;;;;;;;;;;4508809;28;20037;-71
2022/02/02 13:02:11;;;;;;;4.57;1.08;;;;;;;;;;4509640;28;20589;-72
2022/02/02 13:04:29;;;;;;;4.78;1.40;;;;;;;;;;4509374;28;20691;-72
2022/02/02 13:06:40;;;;;;;4.18;1.30;;;;;;;;;;4517831;28;20167;-71
2022/02/02 13:08:53;;;;;;;4.78;1.63;;;;;;;;;;4512522;28;20041;-71
2022/02/02 13:11:04;;;;;;;5.18;1.60;;;;;;;;;;4509142;28;20644;-72
2022/02/02 13:13:22;;;;;;;5.03;1.10;;;;;;;;;;4507498;28;20042;-71
2022/02/02 13:15:39;;;;;;;5.65;1.52;;;;;;;;;;4510338;28;20132;-71
2022/02/02 13:20:14;;;;;;;;;;;;;;;;;;4509626;28;20683;-71
2022/02/02 13:22:28;;;;;;;3.92;1.50;;;;;;;;;;4509754;28;20656;-71
2022/02/02 13:24:40;;;;;;;5.15;1.50;;;;;;;;;;4508155;28;20041;-71
2022/02/02 13:26:59;;;;;;;5.60;1.60;;;;;;;;;;4508411;28;20041;-71
2022/02/02 13:29:22;;;;;;;4.10;1.60;;;;;;;;;;4507158;28;20049;-71
2022/02/02 13:31:47;;;;;;;5.18;1.42;;;;;;;;;;4510152;28;20038;-71
2022/02/02 13:34:06;;;;;;;4.93;1.40;;;;;;;;;;4507617;28;20557;-71
2022/02/02 13:36:26;;;;;;;4.72;1.50;;;;;;;;;;4507993;28;20029;-72
2022/02/02 13:44:18;;;;;;;3.78;1.13;;;;;;;;;;4508532;28;20033;-71
2022/02/02 13:52:19;;;;;;;6.80;1.30;;;;;;;;;;4517307;28;20034;-71
2022/02/02 14:01:24;;;;;;;3.25;1.02;;;;;;;;;;4511103;28;20096;-72
2022/02/02 14:06:20;;;;;;;2.88;1.02;;;;;;;;;;4507740;28;20038;-72
2022/02/02 14:32:56;;;;;;;3.80;1.02;;;;;;;;;;4508641;28;20092;-72
2022/02/02 14:35:07;;;;;;;3.13;1.00;;;;;;;;;;4511720;28;20129;-72
2022/02/02 14:37:22;;;;;;;2.90;0.83;;;;;;;;;;4523874;28;20120;-72
2022/02/02 14:39:47;;;;;;;4.13;1.15;;;;;;;;;;4508919;28;20073;-72
2022/02/02 14:42:09;;;;;;;4.30;1.10;;;;;;;;;;4508563;28;20066;-71
2022/02/02 14:44:28;;;;;;;3.85;0.80;;;;;;;;;;4507869;28;20828;-72
2022/02/02 14:46:56;;;;;;;2.88;0.93;;;;;;;;;;4507831;28;20566;-72
2022/02/02 14:49:12;;;;;;;3.33;1.08;;;;;;;;;;4509001;28;20045;-71
2022/02/02 14:54:34;;;;;;;2.75;0.85;;;;;;;;;;4478143;28;20688;-71
2022/02/02 15:09:49;;;;;;;3.75;1.20;;;;;;;;;;4511418;28;20033;-71
2022/02/02 15:28:47;;;;;;;4.72;1.30;;;;;;;;;;4516349;28;20037;-71
2022/02/02 15:31:03;;;;;;;2.55;1.05;;;;;;;;;;4509259;28;20026;-71
2022/02/02 15:33:25;;;;;;;3.95;1.20;;;;;;;;;;4507971;28;20030;-71
2022/02/02 15:35:37;;;;;;;2.28;0.90;;;;;;;;;;4508900;28;20848;-71
2022/02/02 15:38:15;;;;;;;3.47;1.00;;;;;;;;;;4507449;28;20116;-71
2022/02/02 15:40:27;;;;;;;3.60;1.13;;;;;;;;;;4507051;28;20046;-71
2022/02/02 15:55:03;;;;;;;3.70;1.13;;;;;;;;;;4507132;28;20030;-70
2022/02/02 16:02:11;;;;;;;3.55;1.00;;;;;;;;;;4510602;28;21344;-68
2022/02/02 16:04:26;;;;;;;2.45;1.20;;;;;;;;;;4506994;28;20040;-69
2022/02/02 16:06:36;;;;;;;3.65;1.10;;;;;;;;;;4504886;28;20113;-69
2022/02/02 16:08:56;;;;;;;3.00;0.97;;;;;;;;;;4512024;28;20129;-75
2022/02/02 16:13:31;;;;;;;2.95;0.98;;;;;;;;;;4507148;28;20041;-75
2022/02/02 16:15:41;;;;;;;3.47;1.08;;;;;;;;;;4508465;28;20017;-75
2022/02/02 16:18:31;;;;;;;5.33;1.40;;;;;;;;;;4508404;28;20038;-75
2022/02/02 16:31:30;;;;;;;7.88;3.72;;;;;;;;;;4512950;28;20813;-75
2022/02/02 16:37:36;;;;;;;3.90;1.75;;;;;;;;;;4511932;28;20042;-68
2022/02/02 16:39:51;;;;;;;3.50;1.83;;;;;;;;;;4511204;28;20578;-74
2022/02/02 16:44:32;;;;;;;3.55;1.13;;;;;;;;;;4510483;28;20029;-78
2022/02/02 16:46:42;;;;;;;3.03;1.33;;;;;;;;;;4510245;28;20042;-74
2022/02/02 16:48:52;;;;;;;3.30;0.90;;;;;;;;;;4511984;28;20529;-85
2022/02/02 16:51:05;;;;;;;2.13;0.80;;;;;;;;;;4512115;28;20549;-78
2022/02/02 16:58:01;;;;;;;2.80;0.98;;;;;;;;;;4491725;28;20053;-77
2022/02/02 17:30:08;;;;;;;7.10;3.50;;;;;;;;;;4511368;28;20508;-77
2022/02/02 17:34:40;;;;;;;7.77;4.17;;;;;;;;;;4512142;28;20533;-78
2022/02/02 17:39:51;;;;;;;4.22;1.90;;;;;;;;;;4485098;28;20045;-74
2022/02/02 17:44:57;;;;;;;4.00;2.08;;;;;;;;;;4484936;28;20085;-80
2022/02/02 18:19:53;;;;;;;4.20;2.08;;;;;;;;;;4509765;28;20033;-74
2022/02/02 18:22:04;;;;;;;4.22;1.80;;;;;;;;;;4510608;28;20030;-77
2022/02/02 18:24:24;;;;;;;4.60;2.13;;;;;;;;;;4508239;28;44757;-72
2022/02/02 18:26:42;;;;;;;5.13;1.90;;;;;;;;;;4509319;28;20209;-77
2022/02/02 18:34:11;;;;;;;6.10;2.22;;;;;;;;;;4441414;28;20094;-76
2022/02/02 18:44:04;;;;;;;5.15;2.20;;;;;;;;;;4510630;28;20824;-73
2022/02/02 18:48:37;;;;;;;3.60;1.60;;;;;;;;;;4521493;28;20599;-75
2022/02/02 18:51:56;;;;;;;5.45;1.90;;;;;;;;;;4510418;28;20652;-73
2022/02/02 18:58:38;;;;;;;5.00;2.05;;;;;;;;;;4509424;28;20345;-80
2022/02/02 19:08:17;;;;;;;6.63;4.43;;;;;;;;;;4509699;28;20045;-75
2022/02/02 19:40:17;;;;;;;4.70;2.10;;;;;;;;;;4508642;28;20572;-83
2022/02/02 19:52:48;;;;;;;5.18;2.13;;;;;;;;;;4509942;28;20146;-84
2022/02/02 19:55:25;;;;;;;5.57;1.95;;;;;;;;;;4509668;28;20132;-83
2022/02/02 20:07:10;;;;;;;6.43;4.57;;;;;;;;;;4513111;28;20033;-84
2022/02/02 20:09:36;;;;;;;6.00;4.13;;;;;;;;;;4518365;28;20052;-84
2022/02/02 20:11:46;;;;;;;5.60;3.17;;;;;;;;;;4511865;28;20029;-82
2022/02/02 20:13:57;;;;;;;4.97;2.47;;;;;;;;;;4512664;28;20038;-83
2022/02/02 20:16:08;;;;;;;5.47;2.27;;;;;;;;;;4512068;28;29829;-84
2022/02/02 20:18:18;;;;;;;3.57;1.90;;;;;;;;;;4519836;28;29904;-83
2022/02/02 20:20:28;;;;;;;5.63;2.33;;;;;;;;;;4513357;28;20521;-83
2022/02/02 20:22:39;;;;;;;4.47;2.10;;;;;;;;;;4517219;28;20029;-83
2022/02/02 20:24:55;;;;;;;4.23;2.23;;;;;;;;;;4511978;28;20506;-83
2022/02/02 20:27:08;;;;;;;4.93;2.22;;;;;;;;;;4511470;28;20053;-84
2022/02/02 20:29:18;;;;;;;5.95;2.25;;;;;;;;;;4503365;28;20166;-85
2022/02/02 20:31:29;;;;;;;4.23;2.17;;;;;;;;;;4512261;28;20386;-85
2022/02/02 20:33:40;;;;;;;6.43;2.45;;;;;;;;;;4512591;28;20193;-85
2022/02/02 20:35:50;;;;;;;4.77;2.30;;;;;;;;;;4511314;28;20165;-84
2022/02/02 20:38:01;;;;;;;6.37;2.60;;;;;;;;;;4512689;28;20541;-84
2022/02/02 20:40:12;;;;;;;3.63;2.00;;;;;;;;;;4511376;28;20391;-84
2022/02/02 20:43:09;;;;;;;5.35;2.20;;;;;;;;;;4511661;28;20034;-84
2022/02/02 21:07:07;;;;;;;5.88;1.80;;;;;;;;;;4493597;28;20030;-87
2022/02/02 21:09:30;;;;;;;3.88;1.60;;;;;;;;;;4510220;28;20673;-86
2022/02/02 21:13:54;;;;;;;4.67;1.80;;;;;;;;;;4511807;28;20033;-88
2022/02/02 21:16:05;;;;;;;5.38;2.35;;;;;;;;;;4510475;28;20032;-88
2022/02/02 21:18:19;;;;;;;4.43;2.17;;;;;;;;;;4512271;28;20061;-86
2022/02/02 21:20:40;;;;;;;4.18;2.08;;;;;;;;;;4511348;28;20054;-86
2022/02/02 21:22:55;;;;;;;5.15;2.10;;;;;;;;;;4510523;28;20029;-86
2022/02/02 21:25:30;;;;;;;3.78;1.85;;;;;;;;;;4510983;28;20029;-86
2022/02/02 21:27:40;;;;;;;5.40;2.05;;;;;;;;;;4510825;28;20648;-88
2022/02/02 21:29:51;;;;;;;5.88;2.28;;;;;;;;;;4511034;28;20038;-89
2022/02/02 21:32:01;;;;;;;5.50;2.63;;;;;;;;;;4512101;28;20029;-88
2022/02/02 21:34:12;;;;;;;5.20;2.47;;;;;;;;;;4512511;28;20049;-87
2022/02/02 21:36:23;;;;;;;5.27;2.77;;;;;;;;;;4509981;28;20064;-87
2022/02/02 21:38:53;;;;;;;6.47;3.00;;;;;;;;;;4509029;28;20328;-89
2022/02/02 21:41:03;;;;;;;5.43;2.40;;;;;;;;;;4511608;28;20109;-88
2022/02/02 21:43:13;;;;;;;4.53;2.40;;;;;;;;;;4510971;28;20140;-87
2022/02/02 21:45:31;;;;;;;5.00;2.40;;;;;;;;;;4510606;28;20089;-87
2022/02/02 21:47:41;;;;;;;3.63;2.00;;;;;;;;;;4511047;28;20040;-87
2022/02/02 21:49:56;;;;;;;7.03;2.50;;;;;;;;;;4510284;28;20385;-89
2022/02/02 21:52:09;;;;;;;4.05;2.20;;;;;;;;;;4510438;28;20080;-89
2022/02/02 21:54:19;;;;;;;4.57;2.13;;;;;;;;;;4508692;28;20030;-88
2022/02/02 21:56:30;;;;;;;6.00;2.50;;;;;;;;;;4508581;28;20042;-89
2022/02/02 21:58:41;;;;;;;5.82;2.30;;;;;;;;;;4510201;28;20761;-89
2022/02/02 22:00:51;;;;;;;5.67;2.50;;;;;;;;;;4508575;28;27740;-88
2022/02/02 22:03:02;;;;;;;5.87;2.40;;;;;;;;;;4511936;28;20034;-88
2022/02/02 22:05:12;;;;;;;5.43;2.40;;;;;;;;;;4509742;28;20093;-88
2022/02/02 22:07:22;;;;;;;4.83;2.27;;;;;;;;;;4513265;28;20038;-88
2022/02/02 22:09:33;;;;;;;4.87;1.90;;;;;;;;;;4510734;28;27108;-89
2022/02/02 22:11:43;;;;;;;6.03;2.57;;;;;;;;;;4509796;28;20041;-89
2022/02/02 22:14:13;;;;;;;5.23;2.50;;;;;;;;;;4510088;28;20402;-90
2022/02/02 22:16:23;;;;;;;5.18;2.53;;;;;;;;;;4510169;28;20030;-89
2022/02/02 22:18:35;;;;;;;6.67;2.47;;;;;;;;;;4510582;28;20049;-90
2022/02/02 22:20:46;;;;;;;5.00;2.10;;;;;;;;;;4511580;28;20149;-89
2022/02/02 22:22:57;;;;;;;6.10;2.50;;;;;;;;;;4510958;28;20153;-87
2022/02/02 22:25:08;;;;;;;5.37;2.30;;;;;;;;;;4510590;28;26697;-87
2022/02/02 22:27:18;;;;;;;6.28;2.17;;;;;;;;;;4510946;28;20026;-89
2022/02/02 22:29:30;;;;;;;6.53;2.07;;;;;;;;;;4509412;28;20049;-88
2022/02/02 22:31:41;;;;;;;6.03;2.00;;;;;;;;;;4510118;28;20458;-88
2022/02/02 22:33:51;;;;;;;4.00;1.77;;;;;;;;;;4510617;28;24482;-89
2022/02/02 22:36:03;;;;;;;5.97;1.93;;;;;;;;;;4510468;28;24103;-89
2022/02/02 22:38:14;;;;;;;6.07;2.20;;;;;;;;;;4511117;28;20037;-88
2022/02/02 22:40:27;;;;;;;6.38;2.10;;;;;;;;;;4509327;28;20085;-89
2022/02/02 22:42:38;;;;;;;5.22;2.10;;;;;;;;;;4511221;28;20085;-88
2022/02/02 22:44:51;;;;;;;4.68;2.00;;;;;;;;;;4510182;28;20033;-88
2022/02/02 22:47:06;;;;;;;5.47;2.05;;;;;;;;;;4510410;28;20655;-86
2022/02/02 22:49:17;;;;;;;5.63;2.20;;;;;;;;;;4512307;28;20800;-87
2022/02/02 22:51:29;;;;;;;6.33;2.30;;;;;;;;;;4510006;28;20055;-87
2022/02/02 22:53:40;;;;;;;6.70;2.30;;;;;;;;;;4510912;28;20048;-88
2022/02/02 22:55:51;;;;;;;6.60;2.00;;;;;;;;;;4510382;28;20895;-88
2022/02/02 22:58:01;;;;;;;5.27;1.97;;;;;;;;;;4509458;28;20933;-89
2022/02/02 23:00:15;;;;;;;7.33;2.20;;;;;;;;;;4510873;28;28866;-89
2022/02/02 23:04:45;;;;;;;6.15;2.10;;;;;;;;;;4512104;28;20719;-88
2022/02/02 23:07:01;;;;;;;4.70;1.73;;;;;;;;;;4499700;28;20030;-88
2022/02/02 23:09:13;;;;;;;6.93;2.20;;;;;;;;;;4503900;28;20045;-88
2022/02/02 23:11:24;;;;;;;6.13;2.40;;;;;;;;;;4524282;28;20041;-90
2022/02/02 23:13:34;;;;;;;5.70;2.20;;;;;;;;;;4518772;28;20026;-89
2022/02/02 23:15:58;;;;;;;5.73;2.20;;;;;;;;;;4512735;28;20468;-88
2022/02/02 23:20:20;;;;;;;7.25;2.30;;;;;;;;;;4511693;28;20032;-88
2022/02/02 23:22:32;;;;;;;5.67;2.43;;;;;;;;;;4514641;28;20035;-89
2022/02/02 23:24:47;;;;;;;8.32;2.53;;;;;;;;;;4510850;28;20845;-89
2022/02/02 23:26:58;;;;;;;6.57;2.60;;;;;;;;;;4512084;28;20034;-89
2022/02/02 23:29:10;;;;;;;5.47;2.30;;;;;;;;;;4510898;28;20025;-89
2022/02/02 23:31:20;;;;;;;6.13;2.20;;;;;;;;;;4510031;28;20037;-87
2022/02/02 23:33:32;;;;;;;7.70;2.27;;;;;;;;;;4512051;28;20034;-86
2022/02/02 23:35:44;;;;;;;8.45;2.88;;;;;;;;;;4515802;28;20790;-88
2022/02/02 23:37:55;;;;;;;7.22;2.80;;;;;;;;;;4522001;28;20034;-88
2022/02/02 23:40:10;;;;;;;10.35;3.30;;;;;;;;;;4505661;28;20052;-88
2022/02/02 23:42:21;;;;;;;7.03;2.50;;;;;;;;;;4514628;28;20762;-85
2022/02/02 23:44:32;;;;;;;;;;;;;;;;;;4513302;28;20042;-85
2022/02/02 23:46:46;;;;;;;7.80;2.97;;;;;;;;;;4514124;28;19921;-85
2022/02/02 23:49:06;;;;;;;7.35;2.83;;;;;;;;;;4495196;28;20961;-85
2022/02/02 23:51:30;;;;;;;8.13;3.20;;;;;;;;;;4509517;28;20030;-86
2022/02/02 23:53:42;;;;;;;6.85;2.90;;;;;;;;;;4515589;28;20044;-89
2022/02/02 23:56:02;;;;;;;9.23;3.33;;;;;;;;;;4513086;28;20045;-90
2022/02/02 23:58:28;;;;;;;7.90;3.25;;;;;;;;;;4514202;28;20041;-90
